• Join FlightAware (Why Join?)
  • Login
  • US Flag 
05:38PM EDT


 

Airport Tracker/Info


-or-


 

Live Flight TrackerFlight Track Log ✈ N309PA ✈ 12-Aug-2013 ✈ KPHX - KPRC

Flight Track Log - Related Links

Times and Time Zones

All times are in EDT time to prevent confusion due to time zone crossing. See the N309PA flight status page for this flight to view local times or setup timezone preferences in your user account.

Time Position Orientation Groundspeed Altitude Reporting Facility
EDT Latitude Longitude Course Direction KTS MPH feet Rate Location/Type
06:50PM 34.0250 -112.1400 345° North 100 115 6,500  Level FlightAware
06:51PM 33.6203 -112.0730 345° North  Level Estimated
06:51PM 34.0360 -112.1460 336° Northwest 95 109 6,900  Level FlightAware
06:51PM 34.0470 -112.1500 343° North 93 107 180 Descending FlightAware
06:52PM 34.0560 -112.1540 340° North 95 109 1,620 Level FlightAware
06:52PM 34.0650 -112.1570 345° North 96 110 1,800 Level FlightAware
06:52PM 34.0740 -112.1610 340° North 92 106 1,920 Level FlightAware
06:53PM 34.0810 -112.1650 335° Northwest 96 110 2,160 Level FlightAware
06:53PM 34.0870 -112.1690 331° Northwest 92 106 2,340 Level FlightAware
06:53PM 34.0940 -112.1700 353° North 92 106 2,520 Level FlightAware
06:53PM 34.0990 -112.1710 351° North 96 110 2,820 Level FlightAware
06:54PM 34.1120 -112.1670 14° North 90 104 3,000 Level FlightAware
06:54PM 34.1170 -112.1670 360° North 100 115 3,660 Level FlightAware
06:54PM 34.1230 -112.1660 North 101 116 4,140 Level FlightAware
06:55PM 34.1340 -112.1650 North 102 117 4,620 Level FlightAware
06:55PM 34.1500 -112.1670 354° North 99 114 5,880 Level FlightAware
06:55PM 34.1570 -112.1690 347° North 103 119 10,740 Level FlightAware
06:56PM 34.1640 -112.1710 347° North 100 115 7,900 15,780 Climbing FlightAware
06:56PM 34.1830 -112.1740 353° North 104 120 -16,380 Descending FlightAware
06:57PM 34.1930 -112.1750 355° North 101 116  Level FlightAware
06:57PM 34.2040 -112.1750 360° North 98 113  Level FlightAware
06:57PM 34.2120 -112.1760 354° North 104 120  Level FlightAware
06:58PM 34.2200 -112.1780 348° North 100 115  Level FlightAware
06:58PM 34.2300 -112.1830 338° Northwest 95 109  Level FlightAware
06:58PM 34.2350 -112.1850 342° North 97 112  Level FlightAware
06:59PM 34.2440 -112.1860 355° North 94 108  Level FlightAware
06:59PM 34.2530 -112.1880 350° North 100 115  Level FlightAware
06:59PM 34.2650 -112.1910 348° North 101 116  Level FlightAware
07:00PM 34.2750 -112.1930 351° North 103 119  Level FlightAware
07:00PM 34.2840 -112.1950 350° North 99 114  Level FlightAware
07:00PM 34.2930 -112.1970 350° North 101 116  Level FlightAware
07:01PM 34.3020 -112.1990 350° North 94 108  Level FlightAware
07:01PM 34.3130 -112.2020 347° North 100 115  Level FlightAware
07:01PM 34.3210 -112.2050 343° North 97 112  Level FlightAware
07:02PM 34.3300 -112.2090 340° North 98 113  Level FlightAware
07:02PM 34.3380 -112.2130 338° Northwest 96 110  Level FlightAware
07:02PM 34.3470 -112.2170 340° North 104 120  Level FlightAware
07:03PM 34.3580 -112.2230 336° Northwest 104 120  Level FlightAware
07:03PM 34.3680 -112.2270 342° North 100 115  Level FlightAware
07:04PM 34.3760 -112.2300 343° North 95 109  Level FlightAware
07:04PM 34.3850 -112.2330 345° North 102 117  Level FlightAware
07:04PM 34.3920 -112.2360 341° North 104 120  Level FlightAware
07:05PM 34.4010 -112.2380 350° North 94 108  Level FlightAware
07:05PM 34.4090 -112.2410 343° North 93 107  Level FlightAware
07:05PM 34.4130 -112.2420 348° North 98 113  Level FlightAware
07:05PM 34.4220 -112.2450 345° North 105 121  Level FlightAware
07:06PM 34.4320 -112.2490 342° North 105 121  Level FlightAware
07:06PM 34.4400 -112.2530 338° Northwest 105 121  Level FlightAware
07:06PM 34.4470 -112.2570 335° Northwest 89 102  Level FlightAware
07:07PM 34.4550 -112.2620 333° Northwest 78 90  Level FlightAware
07:07PM 34.4610 -112.2660 331° Northwest 89 102  Level FlightAware
07:07PM 34.4700 -112.2710 335° Northwest 112 129  Level FlightAware
07:08PM 34.4810 -112.2760 339° North 107 123  Level FlightAware
07:08PM 34.4880 -112.2800 335° Northwest 109 125  Level FlightAware
07:08PM 34.4990 -112.2860 336° Northwest 101 116  Level FlightAware
07:09PM 34.5070 -112.2910 333° Northwest 97 112  Level FlightAware
07:09PM 34.5100 -112.2930 331° Northwest 91 105  Level FlightAware
07:09PM 34.5180 -112.2990 328° Northwest 87 100  Level FlightAware
07:09PM 34.5240 -112.3030 331° Northwest 82 94  Level FlightAware
07:10PM 34.5320 -112.3080 333° Northwest 87 100  Level FlightAware
07:10PM 34.5370 -112.3110 334° Northwest 94 108  Level FlightAware
07:10PM 34.5460 -112.3180 327° Northwest 101 116  Level FlightAware
07:11PM 34.5520 -112.3230 326° Northwest 116 133  Level FlightAware
07:11PM 34.5620 -112.3310 327° Northwest 86 99  Level FlightAware
07:11PM 34.5670 -112.3350 327° Northwest 94 108  Level FlightAware
07:12PM 34.5740 -112.3430 317° Northwest 91 105  Level FlightAware
07:12PM 34.5790 -112.3520 304° West 89 102  Level FlightAware
07:12PM 34.5860 -112.3600 317° Northwest 118 136  Level FlightAware
07:13PM 34.5960 -112.3680 327° Northwest 125 144  Level FlightAware
07:13PM 34.6060 -112.3760 327° Northwest 132 152  Level FlightAware
07:13PM 34.6160 -112.3830 330° Northwest 130 150  Level FlightAware
07:14PM 34.6280 -112.3920 328° Northwest 127 146  Level FlightAware
07:14PM 34.6360 -112.4010 317° Northwest 125 144  Level FlightAware
07:15PM 34.6480 -112.4100 328° Northwest 120 138  Level FlightAware
07:15PM 34.6540 -112.4140 331° Northwest 120 138  Level FlightAware
07:15PM 34.6640 -112.4210 330° Northwest 126 145  Level FlightAware
07:15PM 34.6730 -112.4300 321° Northwest 119 137  Level FlightAware
07:16PM 34.6830 -112.4400 321° Northwest 129 148  Level FlightAware
07:16PM 34.6850 -112.4420 321° Northwest 131 151  Level FlightAware
07:16PM 34.6890 -112.4450 328° Northwest 126 145  Level FlightAware
07:16PM 34.6970 -112.4570 309° West 138 159  Level FlightAware
07:17PM 34.7070 -112.4700 313° West 134 154  Level FlightAware
07:17PM 34.7110 -112.4770 305° West 126 145  Level FlightAware
07:17PM 34.7180 -112.4880 308° West 110 127  Level FlightAware
07:18PM 34.7230 -112.4980 301° West 108 124  Level FlightAware
07:18PM 34.7260 -112.5020 312° West 109 125  Level FlightAware
07:18PM 34.7300 -112.5040 338° Northwest 110 127  Level FlightAware
07:18PM 34.7330 -112.5060 331° Northwest 112 129  Level FlightAware
07:18PM 34.7400 -112.5050 North 115 132  Level FlightAware
07:19PM 34.7520 -112.5030 North 115 132  Level FlightAware
07:19PM 34.7620 -112.5010 North 112 129  Level FlightAware
07:19PM 34.7650 -112.5030 331° Northwest 109 125  Level FlightAware
07:19PM 34.7680 -112.5050 331° Northwest 110 127  Level FlightAware
07:19PM 34.7690 -112.5100 284° West 105 121  Level FlightAware
07:20PM 34.7640 -112.5200 239° Southwest 101 116  Level FlightAware
07:20PM 34.7600 -112.5210 192° South 99 114  Level FlightAware
07:20PM 34.7500 -112.5210 180° South 103 119  Level FlightAware
07:21PM 34.7380 -112.5170 165° South 103 119  Level FlightAware
07:21PM 34.7320 -112.5120 146° Southeast 103 119  Level FlightAware
07:21PM 34.7300 -112.5100 141° Southeast 101 116  Level FlightAware
07:21PM 34.7250 -112.5030 131° Southeast 104 120  Level FlightAware
07:22PM 34.7170 -112.4940 137° Southeast 95 109  Level FlightAware
07:22PM 34.7090 -112.4870 144° Southeast 102 117  Level FlightAware
07:22PM 34.7060 -112.4840 141° Southeast 104 120  Level FlightAware
07:22PM 34.7000 -112.4760 132° Southeast 97 112  Level FlightAware
07:23PM 34.6920 -112.4670 137° Southeast 97 112  Level FlightAware
07:23PM 34.6850 -112.4590 137° Southeast 96 110  Level FlightAware
07:24PM 34.6780 -112.4530 145° Southeast 97 112  Level FlightAware
07:24PM 34.6700 -112.4460 144° Southeast 102 117  Level FlightAware
07:24PM 34.6620 -112.4360 134° Southeast 101 116  Level FlightAware
07:24PM 34.6620 -112.4340 90° East 105 121  Level FlightAware
07:25PM 34.6670 -112.4210 65° Northeast 111 128  Level FlightAware
07:25PM 34.6750 -112.4130 39° Northeast 114 131  Level FlightAware
07:25PM 34.6800 -112.4090 33° Northeast 117 135  Level FlightAware
07:26PM 34.6850 -112.4020 49° Northeast 100 115  Level FlightAware
07:26PM 34.6780 -112.3950 141° Southeast 76 87  Level FlightAware
07:26PM 34.6750 -112.3980 219° Southwest 77 89  Level FlightAware
07:26PM 34.6730 -112.3990 202° Southwest 77 89  Level FlightAware
07:28PM 34.6460 -112.4290 223° Southwest 74 85  Level FlightAware
07:28PM 34.6430 -112.4320 219° Southwest 73 84  Level FlightAware
07:29PM 34.6420 -112.4360 253° West 73 84  Level FlightAware
07:29PM 34.6420 -112.4370 270° West 78 90  Level FlightAware
07:29PM 34.6480 -112.4460 309° West 98 113  Level FlightAware
07:29PM 34.6580 -112.4500 342° North 104 120  Level FlightAware
07:30PM 34.6680 -112.4550 338° Northwest 89 102  Level FlightAware
07:30PM 34.6740 -112.4600 326° Northwest 91 105  Level FlightAware
07:30PM 34.6810 -112.4660 325° Northwest 89 102  Level FlightAware
07:31PM 34.6870 -112.4710 326° Northwest 97 112  Level FlightAware
07:31PM 34.6930 -112.4750 331° Northwest 99 114  Level FlightAware
07:31PM 34.6970 -112.4770 338° Northwest 101 116  Level FlightAware
07:31PM 34.7010 -112.4780 348° North 104 120  Level FlightAware
07:32PM 34.7120 -112.4790 356° North 107 123  Level FlightAware
07:32PM 34.7200 -112.4790 360° North 93 107  Level FlightAware
07:32PM 34.7270 -112.4800 353° North 97 112  Level FlightAware
07:32PM 34.7330 -112.4810 352° North 97 112  Level FlightAware
07:32PM 34.7350 -112.4820 338° Northwest 97 112  Level FlightAware
07:33PM 34.7380 -112.4860 312° West 90 104  Level FlightAware
07:33PM 34.7390 -112.4880 301° West 87 100  Level FlightAware
07:33PM 34.7340 -112.4970 236° Southwest 79 91  Level FlightAware
07:33PM 34.7310 -112.4970 180° South 73 84  Level FlightAware
07:34PM 34.7250 -112.4960 172° South 77 89  Level FlightAware
07:34PM 34.7180 -112.4950 173° South 82 94  Level FlightAware
07:34PM 34.7140 -112.4930 158° South 86 99  Level FlightAware
07:34PM 34.7120 -112.4910 141° Southeast 94 108  Level FlightAware
07:35PM 34.7070 -112.4830 127° Southeast 79 91  Level FlightAware
07:35PM 34.7030 -112.4770 129° Southeast 84 97  Level FlightAware
07:35PM 34.7010 -112.4730 121° Southeast 93 107  Level FlightAware
07:35PM 34.7080 -112.4600 57° Northeast 105 121  Level FlightAware
07:36PM 34.7110 -112.4590 15° North 101 116  Level FlightAware
07:36PM 34.7190 -112.4640 333° Northwest 100 115  Level FlightAware
07:36PM 34.7280 -112.4720 324° Northwest 91 105  Level FlightAware
07:37PM 34.7350 -112.4780 325° Northwest 89 102  Level FlightAware
07:37PM 34.7410 -112.4840 321° Northwest 92 106  Level FlightAware
07:37PM 34.7450 -112.4910 305° West 87 100  Level FlightAware
07:37PM 34.7460 -112.4920 321° Northwest 85 98  Level FlightAware
07:37PM 34.7460 -112.4930 270° West 84 97  Level FlightAware
07:38PM 34.7430 -112.5010 245° Southwest 74 85  Level FlightAware
07:38PM 34.7410 -112.5010 180° South 77 89  Level FlightAware
07:38PM 34.7380 -112.5010 180° South 76 87  Level FlightAware
07:38PM 34.7360 -112.5010 180° South 76 87  Level FlightAware
07:38PM 34.7280 -112.5020 186° South 74 85  Level FlightAware
07:39PM 34.7250 -112.5020 180° South 76 87  Level FlightAware
07:39PM 34.7230 -112.5010 158° South 86 99  Level FlightAware
07:39PM 34.7210 -112.5000 158° South 87 100  Level FlightAware
07:39PM 34.7160 -112.4940 135° Southeast 88 101  Level FlightAware
07:39PM 34.7130 -112.4910 141° Southeast 82 94  Level FlightAware
07:40PM 34.7070 -112.4850 141° Southeast 80 92  Level FlightAware
07:40PM 34.7010 -112.4790 141° Southeast 87 100  Level FlightAware
07:40PM 34.6990 -112.4750 121° Southeast 91 105  Level FlightAware
07:40PM 34.6990 -112.4740 90° East 92 106  Level FlightAware
07:40PM 34.7040 -112.4640 59° Northeast 109 125  Level FlightAware
07:41PM 34.7080 -112.4600 39° Northeast 106 122  Level FlightAware
07:41PM 34.7140 -112.4550 34° Northeast 99 114  Level FlightAware
07:41PM 34.7200 -112.4460 51° Northeast 100 115  Level FlightAware
07:42PM 34.7260 -112.4370 51° Northeast 92 106  Level FlightAware
07:42PM 34.7290 -112.4290 65° Northeast 99 114  Level FlightAware
07:42PM 34.7320 -112.4200 68° East 99 114  Level FlightAware
07:42PM 34.7330 -112.4160 73° East 104 120  Level FlightAware
07:43PM 34.7390 -112.4050 56° Northeast 107 123  Level FlightAware
07:43PM 34.7440 -112.3960 56° Northeast 99 114  Level FlightAware
07:43PM 34.7470 -112.3890 62° Northeast 101 116  Level FlightAware
07:43PM 34.7530 -112.3800 51° Northeast 91 105  Level FlightAware
07:44PM 34.7590 -112.3710 51° Northeast 87 100  Level FlightAware
07:44PM 34.7640 -112.3610 59° Northeast 99 114  Level FlightAware
07:45PM 34.7700 -112.3510 54° Northeast 101 116  Level FlightAware
07:45PM 34.7750 -112.3420 56° Northeast 102 117  Level FlightAware
07:45PM 34.7800 -112.3330 56° Northeast 94 108  Level FlightAware
07:46PM 34.7870 -112.3230 50° Northeast 97 112  Level FlightAware
07:46PM 34.7910 -112.3130 64° Northeast 100 115  Level FlightAware
07:46PM 34.7950 -112.3060 55° Northeast 98 113  Level FlightAware
07:46PM 34.7990 -112.2980 59° Northeast 97 112  Level FlightAware
07:47PM 34.8050 -112.2870 56° Northeast 98 113  Level FlightAware
07:47PM 34.8100 -112.2780 56° Northeast 98 113  Level FlightAware
07:48PM 34.8160 -112.2680 54° Northeast 98 113  Level FlightAware
07:48PM 34.8200 -112.2570 66° East 107 123  Level FlightAware
07:48PM 34.8220 -112.2490 73° East 118 136  Level FlightAware
07:48PM 34.8210 -112.2440 104° East 115 132  Level FlightAware
07:49PM 34.8190 -112.2300 100° East 137 158  Level FlightAware
07:49PM 34.8160 -112.2120 101° East 132 152  Level FlightAware
07:49PM 34.8140 -112.1970 99° East 134 154  Level FlightAware
07:50PM 34.8130 -112.1840 95° East 124 143  Level FlightAware
07:50PM 34.8130 -112.1760 90° East 115 132  Level FlightAware
07:50PM 34.8130 -112.1610 90° East 119 137  Level FlightAware
07:51PM 34.8140 -112.1480 85° East 113 130  Level FlightAware
07:51PM 34.8140 -112.1350 90° East 104 120  Level FlightAware
07:51PM 34.8140 -112.1210 90° East 100 115  Level FlightAware
07:52PM 34.8150 -112.1130 81° East 104 120  Level FlightAware
07:52PM 34.8170 -112.1020 78° East 110 127  Level FlightAware
07:52PM 34.8200 -112.0890 74° East 111 128  Level FlightAware
07:52PM 34.8200 -112.0810 90° East 119 137  Level FlightAware
07:53PM 34.8180 -112.0770 121° Southeast 125 144  Level FlightAware
07:53PM 34.8140 -112.0710 129° Southeast 128 147  Level FlightAware
07:53PM 34.8060 -112.0620 137° Southeast 117 135  Level FlightAware
07:53PM 34.8050 -112.0560 101° East 124 143  Level FlightAware
07:53PM 34.8040 -112.0550 141° Southeast 127 146  Level FlightAware
07:54PM 34.8090 -112.0390 69° East 115 132  Level FlightAware
07:54PM 34.8140 -112.0280 61° Northeast 110 127  Level FlightAware
07:54PM 34.8180 -112.0140 71° East 120 138  Level FlightAware
07:55PM 34.8220 -112.0010 69° East 119 137  Level FlightAware
07:55PM 34.8280 -111.9870 62° Northeast 116 133  Level FlightAware
07:55PM 34.8290 -111.9850 59° Northeast 118 136  Level FlightAware
07:55PM 34.8300 -111.9820 68° East 115 132  Level FlightAware
07:55PM 34.8290 -111.9750 100° East 111 128  Level FlightAware
07:56PM 34.8260 -111.9720 141° Southeast 105 121  Level FlightAware
07:56PM 34.8210 -111.9690 154° Southeast 107 123  Level FlightAware
07:56PM 34.8170 -111.9690 180° South 110 127  Level FlightAware
07:56PM 34.8060 -111.9700 184° South 108 124  Level FlightAware
07:56PM 34.8030 -111.9710 195° South 107 123  Level FlightAware
07:57PM 34.7980 -111.9720 189° South 106 122  Level FlightAware
07:57PM 34.7930 -111.9740 198° South 106 122  Level FlightAware
07:57PM 34.7830 -111.9790 202° Southwest 103 119  Level FlightAware
07:57PM 34.7750 -111.9840 207° Southwest 114 131  Level FlightAware
07:58PM 34.7660 -111.9890 205° Southwest 104 120  Level FlightAware
07:58PM 34.7620 -111.9900 192° South 101 116  Level FlightAware
07:58PM 34.7550 -111.9820 137° Southeast 120 138  Level FlightAware
07:58PM 34.7550 -111.9810 90° East 122 140  Level FlightAware
07:59PM 34.7570 -111.9650 81° East 122 140  Level FlightAware
07:59PM 34.7520 -111.9530 117° Southeast 108 124  Level FlightAware
07:59PM 34.7480 -111.9520 168° South 112 129  Level FlightAware
07:59PM 34.7390 -111.9500 170° South 76 87  Level FlightAware
08:00PM 34.7320 -111.9480 167° South 86 99  Level FlightAware
08:00PM 34.7240 -111.9460 168° South 97 112  Level FlightAware
08:00PM 34.7170 -111.9430 161° South 98 113  Level FlightAware
08:01PM 34.7140 -111.9400 141° Southeast 99 114  Level FlightAware
08:01PM 34.7100 -111.9360 141° Southeast 99 114  Level FlightAware
08:01PM 34.7070 -111.9340 151° Southeast 102 117  Level FlightAware
08:01PM 34.7010 -111.9300 151° Southeast 106 122  Level FlightAware
08:01PM 34.6950 -111.9240 141° Southeast 110 127  Level FlightAware
08:01PM 34.6940 -111.9200 107° East 123 142  Level FlightAware
08:02PM 34.7000 -111.9070 61° Northeast 131 151  Level FlightAware
08:02PM 34.7070 -111.8970 50° Northeast 129 148  Level FlightAware
08:02PM 34.7130 -111.8860 56° Northeast 133 153  Level FlightAware
08:03PM 34.7190 -111.8730 61° Northeast 132 152  Level FlightAware
08:03PM 34.7220 -111.8680 54° Northeast 127 146  Level FlightAware
08:03PM 34.7240 -111.8600 73° East 127 146  Level FlightAware
08:03PM 34.7290 -111.8470 65° Northeast 130 150  Level FlightAware
08:04PM 34.7360 -111.8310 62° Northeast 120 138  Level FlightAware
08:04PM 34.7360 -111.8290 90° East 117 135  Level FlightAware
08:04PM 34.7280 -111.8210 141° Southeast 88 101  Level FlightAware
08:05PM 34.7200 -111.8190 168° South 95 109  Level FlightAware
08:05PM 34.7140 -111.8180 172° South 100 115  Level FlightAware
08:05PM 34.7090 -111.8180 180° South 94 108  Level FlightAware
08:05PM 34.6990 -111.8200 189° South 92 106  Level FlightAware
08:06PM 34.6900 -111.8230 195° South 97 112  Level FlightAware
08:06PM 34.6820 -111.8260 197° South 92 106  Level FlightAware
08:06PM 34.6760 -111.8290 202° Southwest 99 114  Level FlightAware
08:06PM 34.6720 -111.8290 180° South 109 125  Level FlightAware
08:07PM 34.6630 -111.8300 185° South 103 119  Level FlightAware
08:08PM 34.6470 -111.8320 186° South 97 112  Level FlightAware
08:12PM 34.5600 -111.7270 135° Southeast 96 110  Level FlightAware
08:12PM 34.5530 -111.7190 137° Southeast 96 110  Level FlightAware